createdAt,value
2017-07-12T00:00:35.841Z,17.27
2017-07-12T00:03:04.197Z,15.40
2017-07-12T00:05:32.498Z,18.40
2017-07-12T00:08:01.675Z,21.17
2017-07-12T00:10:29.946Z,15.60
2017-07-12T00:12:59.191Z,16.97
2017-07-12T00:15:28.672Z,16.20
2017-07-12T00:17:57.049Z,16.70
2017-07-12T00:20:25.368Z,14.80
2017-07-12T00:22:54.401Z,17.20
2017-07-12T00:25:23.027Z,14.67
2017-07-12T00:27:53.162Z,14.63
2017-07-12T00:30:22.352Z,16.47
2017-07-12T00:32:50.730Z,17.50
2017-07-12T00:35:19.112Z,19.77
2017-07-12T00:37:47.791Z,20.77
2017-07-12T00:40:16.075Z,21.17
2017-07-12T00:42:45.396Z,21.10
2017-07-12T00:45:14.275Z,22.57
2017-07-12T00:47:42.671Z,21.93
2017-07-12T00:50:11.888Z,24.77
2017-07-12T00:52:40.193Z,27.23
2017-07-12T00:55:09.338Z,26.53
2017-07-12T00:57:37.747Z,26.83
2017-07-12T01:00:06.432Z,26.23
2017-07-12T01:02:35.590Z,26.00
2017-07-12T01:05:04.389Z,27.63
2017-07-12T01:07:33.038Z,27.33
2017-07-12T01:10:02.234Z,27.70
2017-07-12T01:12:30.586Z,26.27
2017-07-12T01:14:59.191Z,26.07
2017-07-12T01:17:27.478Z,26.23
2017-07-12T01:19:56.059Z,26.07
2017-07-12T01:22:24.341Z,26.73
2017-07-12T01:24:52.794Z,26.93
2017-07-12T01:27:21.412Z,27.37
2017-07-12T01:29:49.796Z,28.70
2017-07-12T01:32:18.696Z,28.57
2017-07-12T01:34:47.080Z,28.93
2017-07-12T01:37:15.437Z,29.37
2017-07-12T01:39:44.055Z,28.80
2017-07-12T01:42:12.337Z,26.20
2017-07-12T01:44:41.527Z,25.20
2017-07-12T01:47:09.954Z,27.80
2017-07-12T01:49:39.148Z,28.50
2017-07-12T01:52:08.641Z,26.80
2017-07-12T01:54:37.735Z,25.40
2017-07-12T01:57:06.307Z,26.83
2017-07-12T01:59:35.019Z,23.17
2017-07-12T02:02:03.412Z,26.33
2017-07-12T02:04:32.098Z,27.83
2017-07-12T02:07:00.412Z,25.63
2017-07-12T02:09:29.831Z,27.63
2017-07-12T02:11:58.366Z,26.90
2017-07-12T02:14:27.254Z,27.93
2017-07-12T02:16:55.947Z,28.27
2017-07-12T02:19:24.351Z,28.67
2017-07-12T02:21:53.593Z,25.97
2017-07-12T02:24:21.952Z,26.60
2017-07-12T02:26:51.028Z,26.10
2017-07-12T02:29:19.589Z,25.00
2017-07-12T02:31:47.974Z,27.13
2017-07-12T02:34:16.369Z,27.00
2017-07-12T02:36:44.745Z,25.53
2017-07-12T02:39:13.667Z,25.07
2017-07-12T02:41:42.346Z,25.13
2017-07-12T02:44:10.613Z,27.73
2017-07-12T02:46:39.035Z,24.30
2017-07-12T02:49:08.245Z,25.73
2017-07-12T02:51:38.121Z,27.33
2017-07-12T02:54:06.700Z,24.70
2017-07-12T02:56:35.255Z,26.13
2017-07-12T02:59:03.536Z,24.73
2017-07-12T03:01:32.472Z,27.07
2017-07-12T03:04:01.278Z,23.70
2017-07-12T03:06:30.366Z,25.90
2017-07-12T03:08:59.494Z,27.07
2017-07-12T03:11:27.983Z,26.83
2017-07-12T03:13:56.355Z,25.13
2017-07-12T03:16:24.719Z,26.80
2017-07-12T03:18:53.311Z,25.70
2017-07-12T03:21:22.341Z,23.53
2017-07-12T03:23:51.493Z,26.20
2017-07-12T03:26:21.336Z,25.30
2017-07-12T03:28:49.618Z,27.23
2017-07-12T03:31:18.204Z,25.77
2017-07-12T03:33:47.071Z,25.73
2017-07-12T03:36:15.346Z,24.60
2017-07-12T03:38:43.657Z,25.97
2017-07-12T03:41:12.049Z,27.70
2017-07-12T03:43:40.442Z,24.00
2017-07-12T03:46:09.479Z,24.60
2017-07-12T03:48:39.140Z,24.17
2017-07-12T03:51:08.108Z,24.33
2017-07-12T03:53:36.380Z,21.90
2017-07-12T03:56:04.713Z,21.77
2017-07-12T03:58:33.096Z,23.17
2017-07-12T04:01:01.966Z,24.00
2017-07-12T04:03:30.260Z,22.90
2017-07-12T04:05:58.676Z,24.73
2017-07-12T04:08:27.761Z,22.67
2017-07-12T04:10:57.133Z,26.23
2017-07-12T04:13:25.709Z,25.00
2017-07-12T04:15:54.002Z,22.80
2017-07-12T04:18:22.380Z,22.33
2017-07-12T04:20:50.989Z,23.80
2017-07-12T04:23:19.290Z,28.30
2017-07-12T04:25:48.588Z,23.10
2017-07-12T04:28:17.348Z,23.47
2017-07-12T04:30:45.631Z,20.73
2017-07-12T04:33:13.936Z,24.00
2017-07-12T04:35:42.270Z,20.67
2017-07-12T04:38:11.603Z,22.97
2017-07-12T04:40:40.607Z,18.70
2017-07-12T04:43:08.901Z,21.93
2017-07-12T04:45:37.379Z,19.83
2017-07-12T04:48:05.764Z,21.87
2017-07-12T04:50:34.378Z,22.17
2017-07-12T04:53:03.550Z,18.20
2017-07-12T04:55:31.845Z,18.20
2017-07-12T04:58:00.146Z,18.67
2017-07-12T05:00:29.332Z,18.43
2017-07-12T05:02:58.023Z,21.30
2017-07-12T05:05:26.370Z,17.30
2017-07-12T05:07:55.531Z,18.37
2017-07-12T05:10:24.703Z,17.03
2017-07-12T05:12:52.984Z,19.13
2017-07-12T05:15:22.168Z,17.00
2017-07-12T05:17:50.456Z,17.70
2017-07-12T05:20:18.739Z,18.50
2017-07-12T05:22:47.117Z,21.50
2017-07-12T05:25:15.484Z,16.63
2017-07-12T05:27:44.100Z,20.67
2017-07-12T05:30:12.397Z,19.80
2017-07-12T05:32:40.998Z,18.07
2017-07-12T05:35:09.354Z,22.60
2017-07-12T05:37:37.667Z,21.67
2017-07-12T05:40:07.047Z,17.97
2017-07-12T05:42:37.075Z,22.13
2017-07-12T05:45:05.359Z,17.03
2017-07-12T05:47:34.348Z,14.90
2017-07-12T05:50:02.662Z,14.03
2017-07-12T05:52:32.099Z,12.20
2017-07-12T05:55:01.204Z,12.47
2017-07-12T05:57:29.502Z,13.50
2017-07-12T05:59:58.315Z,14.03
2017-07-12T06:02:28.006Z,13.67
2017-07-12T06:04:56.619Z,14.73
2017-07-12T06:07:26.023Z,13.60
2017-07-12T06:09:54.345Z,11.00
2017-07-12T06:12:23.416Z,16.37
2017-07-12T06:14:52.139Z,13.43
2017-07-12T06:17:20.726Z,13.83
2017-07-12T06:19:49.914Z,13.93
2017-07-12T06:22:19.289Z,13.53
2017-07-12T06:24:47.695Z,13.77
2017-07-12T06:27:16.691Z,13.60
2017-07-12T06:29:45.373Z,12.30
2017-07-12T06:32:13.681Z,14.33
2017-07-12T06:34:42.755Z,12.87
2017-07-12T06:37:11.798Z,15.43
2017-07-12T06:39:40.125Z,15.07
2017-07-12T06:42:08.816Z,14.23
2017-07-12T06:44:37.184Z,14.17
2017-07-12T06:47:05.577Z,15.13
2017-07-12T06:49:34.277Z,14.47
2017-07-12T06:52:02.552Z,17.80
2017-07-12T06:54:30.940Z,16.47
2017-07-12T06:56:59.305Z,16.50
2017-07-12T06:59:28.048Z,18.13
2017-07-12T07:01:57.427Z,16.33
2017-07-12T07:04:26.725Z,15.80
2017-07-12T07:06:55.033Z,17.00
2017-07-12T07:09:23.351Z,14.63
2017-07-12T07:11:51.672Z,12.07
2017-07-12T07:14:20.348Z,10.73
2017-07-12T07:16:48.728Z,12.33
2017-07-12T07:19:17.026Z,12.10
2017-07-12T07:21:45.420Z,10.00
2017-07-12T07:24:13.775Z,10.43
2017-07-12T07:26:42.378Z,11.37
2017-07-12T07:29:10.693Z,11.77
2017-07-12T07:31:39.047Z,10.13
2017-07-12T07:34:07.343Z,13.17
2017-07-12T07:36:35.825Z,12.13
2017-07-12T07:39:04.395Z,10.90
2017-07-12T07:41:33.120Z,10.10
2017-07-12T07:44:01.895Z,10.67
2017-07-12T07:46:30.929Z,10.20
2017-07-12T07:48:59.224Z,9.67
2017-07-12T07:51:27.529Z,10.43
2017-07-12T07:53:57.055Z,9.57
2017-07-12T07:56:25.345Z,10.27
2017-07-12T07:58:53.991Z,9.90
2017-07-12T08:01:22.617Z,11.30
2017-07-12T08:03:50.904Z,8.70
2017-07-12T08:06:19.214Z,9.23
2017-07-12T08:08:48.886Z,9.10
2017-07-12T08:11:17.154Z,8.27
2017-07-12T08:13:45.478Z,11.90
2017-07-12T08:16:14.169Z,12.03
2017-07-12T08:25:30.541Z,8.10
2017-07-12T08:27:59.660Z,7.33
2017-07-12T08:30:27.942Z,33.50
2017-07-12T08:32:57.316Z,9.67
2017-07-12T08:35:25.696Z,7.40
2017-07-12T08:37:54.693Z,7.37
2017-07-12T08:40:23.595Z,6.47
2017-07-12T08:42:51.904Z,5.87
2017-07-12T08:45:20.181Z,6.63
2017-07-12T08:47:48.854Z,6.00
2017-07-12T08:50:17.142Z,6.30
2017-07-12T08:52:45.958Z,6.10
2017-07-12T08:55:14.634Z,10.97
2017-07-12T08:57:42.923Z,5.90
2017-07-12T09:00:11.326Z,5.07
2017-07-12T09:02:40.639Z,6.20
2017-07-12T09:05:09.172Z,11.00
2017-07-12T09:07:37.455Z,6.63
2017-07-12T09:10:06.129Z,5.83
2017-07-12T09:12:34.396Z,5.60
2017-07-12T09:15:02.713Z,5.10
2017-07-12T09:17:31.337Z,7.43
2017-07-12T09:19:59.639Z,5.97
2017-07-12T09:22:27.920Z,7.03
2017-07-12T09:34:50.834Z,7.73
2017-07-12T09:37:19.878Z,6.13
2017-07-12T09:39:49.361Z,4.70
2017-07-12T09:42:18.397Z,5.60
2017-07-12T09:44:46.704Z,5.00
2017-07-12T09:47:15.097Z,8.90
2017-07-12T09:49:43.846Z,5.50
2017-07-12T09:52:12.132Z,4.83
2017-07-12T09:54:40.436Z,6.50
2017-07-12T09:57:09.959Z,8.33
2017-07-12T09:59:38.270Z,5.80
2017-07-12T10:02:07.693Z,8.27
2017-07-12T10:04:35.978Z,6.47
2017-07-12T10:07:05.052Z,6.97
2017-07-12T10:09:33.708Z,8.43
2017-07-12T10:12:01.998Z,6.57
2017-07-12T10:14:31.175Z,6.63
2017-07-12T10:16:59.915Z,7.87
2017-07-12T10:19:28.989Z,11.13
2017-07-12T10:21:57.304Z,7.37
2017-07-12T10:24:26.637Z,8.13
2017-07-12T10:26:55.094Z,9.87
2017-07-12T10:29:24.148Z,7.83
2017-07-12T10:31:52.848Z,8.13
2017-07-12T10:34:21.153Z,14.40
2017-07-12T10:36:50.218Z,8.00
2017-07-12T10:39:18.579Z,8.13
2017-07-12T10:41:46.911Z,7.80
2017-07-12T10:44:15.468Z,7.73
2017-07-12T10:46:43.804Z,8.57
2017-07-12T10:49:13.220Z,8.27
2017-07-12T10:51:41.505Z,7.90
2017-07-12T10:54:09.851Z,8.00
2017-07-12T10:56:38.443Z,8.43
2017-07-12T10:59:07.529Z,15.00
2017-07-12T11:01:35.891Z,8.48
2017-07-12T11:04:04.504Z,11.90
2017-07-12T11:06:33.604Z,7.45
2017-07-12T11:09:02.751Z,7.50
2017-07-12T11:11:31.290Z,6.43
2017-07-12T11:13:59.803Z,6.20
2017-07-12T11:16:29.059Z,7.93
2017-07-12T11:18:58.123Z,7.63
2017-07-12T11:21:26.427Z,6.50
2017-07-12T11:23:54.745Z,8.10
2017-07-12T11:26:23.437Z,7.50
2017-07-12T11:28:52.548Z,8.37
2017-07-12T11:31:21.292Z,8.00
2017-07-12T11:33:49.892Z,10.33
2017-07-12T11:36:18.575Z,8.77
2017-07-12T11:38:46.868Z,9.37
2017-07-12T11:41:15.582Z,9.80
2017-07-12T11:43:43.850Z,9.93
2017-07-12T11:46:12.129Z,10.37
2017-07-12T11:48:41.177Z,12.20
2017-07-12T11:51:09.462Z,13.03
2017-07-12T11:53:37.736Z,16.37
2017-07-12T11:56:06.381Z,18.07
2017-07-12T11:58:34.715Z,13.97
2017-07-12T12:01:05.326Z,12.87
2017-07-12T12:03:34.381Z,14.93
2017-07-12T12:06:02.677Z,9.20
2017-07-12T12:08:31.195Z,19.57
2017-07-12T12:11:00.581Z,14.80
2017-07-12T12:13:28.898Z,12.50
2017-07-12T12:15:57.269Z,11.13
2017-07-12T12:18:26.017Z,11.20
2017-07-12T12:20:54.336Z,10.70
2017-07-12T12:23:22.704Z,11.80
2017-07-12T12:25:51.386Z,16.90
2017-07-12T12:28:19.698Z,16.57
2017-07-12T12:30:48.790Z,16.80
2017-07-12T12:33:17.390Z,11.20
2017-07-12T12:35:46.473Z,13.67
2017-07-12T12:38:14.853Z,13.40
2017-07-12T12:40:43.226Z,12.97
2017-07-12T12:43:11.551Z,13.27
2017-07-12T12:45:41.057Z,11.97
2017-07-12T12:48:09.428Z,14.67
2017-07-12T12:50:38.923Z,16.40
2017-07-12T12:53:07.243Z,17.27
2017-07-12T12:55:35.580Z,14.37
2017-07-12T12:58:04.691Z,15.50
2017-07-12T13:00:33.245Z,16.27
2017-07-12T13:03:01.775Z,16.93
2017-07-12T13:05:35.892Z,14.60
2017-07-12T13:08:05.000Z,13.83
2017-07-12T13:10:33.659Z,17.33
2017-07-12T13:13:01.959Z,17.40
2017-07-12T13:15:31.146Z,13.60
2017-07-12T13:17:59.447Z,15.90
2017-07-12T13:20:28.031Z,12.73
2017-07-12T13:22:57.471Z,12.87
2017-07-12T13:25:25.768Z,12.60
2017-07-12T13:27:54.411Z,11.70
2017-07-12T13:30:22.688Z,12.87
2017-07-12T13:32:51.759Z,10.90
2017-07-12T13:35:20.365Z,13.23
2017-07-12T13:37:48.668Z,13.83
2017-07-12T13:40:18.169Z,13.70
2017-07-12T13:42:47.627Z,13.00
2017-07-12T13:45:16.083Z,16.20
2017-07-12T13:47:44.468Z,13.00
2017-07-12T13:50:13.811Z,13.07
2017-07-12T13:52:42.134Z,13.30
2017-07-12T13:55:10.746Z,15.43
2017-07-12T13:57:40.617Z,12.20
2017-07-12T14:00:08.924Z,14.07
2017-07-12T14:02:38.104Z,15.67
2017-07-12T14:05:06.498Z,15.33
2017-07-12T14:07:35.890Z,14.40
2017-07-12T14:10:05.602Z,13.00
2017-07-12T14:12:33.895Z,11.63
2017-07-12T14:15:02.274Z,11.70
2017-07-12T14:17:31.290Z,13.30
2017-07-12T14:20:00.679Z,12.07
2017-07-12T14:22:28.965Z,11.70
2017-07-12T14:24:57.774Z,13.93
2017-07-12T14:27:26.943Z,11.50
2017-07-12T14:29:55.252Z,12.70
2017-07-12T14:32:24.655Z,13.63
2017-07-12T14:34:53.117Z,11.17
2017-07-12T14:37:22.354Z,11.93
2017-07-12T14:39:51.435Z,11.97
2017-07-12T14:42:21.140Z,13.90
2017-07-12T14:44:49.525Z,12.80
2017-07-12T14:47:18.339Z,12.37
2017-07-12T14:49:47.077Z,12.67
2017-07-12T14:52:15.839Z,12.17
2017-07-12T14:54:45.601Z,15.53
2017-07-12T14:57:14.187Z,15.83
2017-07-12T14:59:43.711Z,10.80
2017-07-12T15:02:12.003Z,12.30
2017-07-12T15:04:41.500Z,11.80
2017-07-12T15:07:09.819Z,12.40
2017-07-12T15:09:40.690Z,12.30
2017-07-12T15:12:10.210Z,14.90
2017-07-12T15:14:38.399Z,12.33
2017-07-12T15:17:06.706Z,14.50
2017-07-12T15:19:35.039Z,12.83
2017-07-12T15:22:05.036Z,11.27
2017-07-12T15:24:34.019Z,12.73
2017-07-12T15:27:02.347Z,14.80
2017-07-12T15:29:30.659Z,12.47
2017-07-12T15:32:00.282Z,12.57
2017-07-12T15:34:30.235Z,12.87
2017-07-12T15:36:58.392Z,13.53
2017-07-12T15:39:26.679Z,12.87
2017-07-12T15:41:55.964Z,12.07
2017-07-12T15:44:24.347Z,14.27
2017-07-12T15:46:52.910Z,17.27
2017-07-12T15:49:21.345Z,14.43
2017-07-12T15:51:50.414Z,14.03
2017-07-12T15:54:20.316Z,15.93
2017-07-12T15:56:48.671Z,17.13
2017-07-12T15:59:18.524Z,15.03
2017-07-12T16:01:46.843Z,15.87
2017-07-12T16:04:15.113Z,16.30
2017-07-12T16:06:43.472Z,17.17
2017-07-12T16:09:11.766Z,15.83
2017-07-12T16:11:41.585Z,15.10
2017-07-12T16:14:10.198Z,18.33
2017-07-12T16:16:39.255Z,19.47
2017-07-12T16:19:08.157Z,17.37
2017-07-12T16:21:36.548Z,16.83
2017-07-12T16:24:05.137Z,18.30
2017-07-12T16:26:33.632Z,19.67
2017-07-12T16:29:02.269Z,20.87
2017-07-12T16:31:30.529Z,20.77
2017-07-12T16:33:58.886Z,19.20
2017-07-12T16:36:27.469Z,16.70
2017-07-12T16:38:56.135Z,20.60
2017-07-12T16:41:24.844Z,18.67
2017-07-12T16:43:53.102Z,10.07
2017-07-12T16:46:21.385Z,9.00
2017-07-12T16:48:49.689Z,8.97
2017-07-12T16:51:17.957Z,9.80
2017-07-12T16:53:46.547Z,9.63
2017-07-12T16:56:14.823Z,10.10
2017-07-12T16:58:43.133Z,8.37
2017-07-12T17:01:11.495Z,8.03
2017-07-12T17:03:40.916Z,7.23
2017-07-12T17:06:10.311Z,7.00
2017-07-12T17:08:39.213Z,6.90
2017-07-12T17:11:07.524Z,7.70
2017-07-12T17:13:37.350Z,7.57
2017-07-12T17:16:06.393Z,7.53
2017-07-12T17:18:34.759Z,7.43
2017-07-12T17:21:03.050Z,7.13
2017-07-12T17:23:31.657Z,7.90
2017-07-12T17:26:00.355Z,6.90
2017-07-12T17:28:28.668Z,6.83
2017-07-12T17:30:58.346Z,7.27
2017-07-12T17:33:26.718Z,16.60
2017-07-12T17:35:55.033Z,5.73
2017-07-12T17:38:23.311Z,8.60
2017-07-12T17:40:51.669Z,6.00
2017-07-12T17:43:20.048Z,11.23
2017-07-12T17:45:48.649Z,6.33
2017-07-12T17:48:16.919Z,5.87
2017-07-12T17:50:45.515Z,5.93
2017-07-12T17:53:13.804Z,4.73
2017-07-12T17:55:42.192Z,5.50
2017-07-12T17:58:10.735Z,5.17
2017-07-12T18:00:39.040Z,5.30
2017-07-12T18:03:08.156Z,5.50
2017-07-12T18:05:36.458Z,4.73
2017-07-12T18:08:04.807Z,4.80
2017-07-12T18:10:33.183Z,5.43
2017-07-12T18:13:01.490Z,4.40
2017-07-12T18:15:30.065Z,5.03
2017-07-12T18:17:59.180Z,6.20
2017-07-12T18:20:27.558Z,6.23
2017-07-12T18:22:55.906Z,5.40
2017-07-12T18:25:24.256Z,5.80
2017-07-12T18:27:53.694Z,6.37
2017-07-12T18:30:22.018Z,5.83
2017-07-12T18:32:50.581Z,6.77
2017-07-12T18:35:19.025Z,9.10
2017-07-12T18:37:48.772Z,7.20
2017-07-12T18:40:17.072Z,5.83
2017-07-12T18:42:46.067Z,5.70
2017-07-12T18:45:14.688Z,8.00
2017-07-12T18:47:43.092Z,7.07
2017-07-12T18:50:11.349Z,7.70
2017-07-12T18:52:41.102Z,5.87
2017-07-12T18:55:10.833Z,10.13
2017-07-12T18:57:39.849Z,9.70
2017-07-12T19:00:08.129Z,6.67
2017-07-12T19:02:36.946Z,6.87
2017-07-12T19:05:05.333Z,11.80
2017-07-12T19:07:34.559Z,7.07
2017-07-12T19:10:03.687Z,6.70
2017-07-12T19:12:34.314Z,8.00
2017-07-12T19:15:02.595Z,7.53
2017-07-12T19:17:32.221Z,7.90
2017-07-12T19:20:00.944Z,7.57
2017-07-12T19:22:29.929Z,6.10
2017-07-12T19:24:58.203Z,6.73
2017-07-12T19:27:27.440Z,6.27
2017-07-12T19:29:56.202Z,5.37
2017-07-12T19:32:24.490Z,7.30
2017-07-12T19:34:54.233Z,8.83
2017-07-12T19:37:22.415Z,5.67
2017-07-12T19:39:51.015Z,6.20
2017-07-12T19:42:20.138Z,4.90
2017-07-12T19:44:49.817Z,5.37
2017-07-12T19:47:18.054Z,5.57
2017-07-12T19:49:46.344Z,6.17
2017-07-12T19:52:14.920Z,5.50
2017-07-12T19:54:43.215Z,6.70
2017-07-12T19:57:11.492Z,4.10
2017-07-12T19:59:40.960Z,3.70
2017-07-12T20:02:10.062Z,5.67
2017-07-12T20:04:39.428Z,4.90
2017-07-12T20:07:07.805Z,7.20
2017-07-12T20:09:36.102Z,6.20
2017-07-12T20:12:04.425Z,5.50
2017-07-12T20:14:32.816Z,5.30
2017-07-12T20:17:01.397Z,6.20
2017-07-12T20:19:29.741Z,7.80
2017-07-12T20:21:58.515Z,5.70
2017-07-12T20:24:27.393Z,5.80
2017-07-12T20:26:55.800Z,7.23
2017-07-12T20:29:24.389Z,7.23
2017-07-12T20:31:52.852Z,7.70
2017-07-12T20:34:21.249Z,9.07
2017-07-12T20:36:49.639Z,7.80
2017-07-12T20:39:18.241Z,8.77
2017-07-12T20:41:46.907Z,9.40
2017-07-12T20:44:15.868Z,10.20
2017-07-12T20:46:44.324Z,10.30
2017-07-12T20:49:12.629Z,10.50
2017-07-12T20:51:41.236Z,10.83
2017-07-12T20:54:09.749Z,9.70
2017-07-12T20:56:38.667Z,10.83
2017-07-12T20:59:07.366Z,12.10
2017-07-12T21:01:37.082Z,11.00
2017-07-12T21:04:06.508Z,12.63
2017-07-12T21:06:35.951Z,9.20
2017-07-12T21:09:05.399Z,3.40
2017-07-12T21:11:33.786Z,3.80
2017-07-12T21:14:04.419Z,3.40
2017-07-12T21:16:33.953Z,3.30
2017-07-12T21:19:03.486Z,4.20
2017-07-12T21:21:33.006Z,2.67
2017-07-12T21:24:02.529Z,3.07
2017-07-12T21:26:31.011Z,3.70
2017-07-12T21:28:59.401Z,3.63
2017-07-12T21:31:27.738Z,2.90
2017-07-12T21:33:57.442Z,3.10
2017-07-12T21:36:26.735Z,3.63
2017-07-12T21:38:56.091Z,4.90
2017-07-12T21:41:25.546Z,8.33
2017-07-12T21:43:54.639Z,4.50
2017-07-12T21:46:23.840Z,11.80
2017-07-12T21:48:52.896Z,3.90
2017-07-12T21:51:21.503Z,6.93
2017-07-12T21:54:07.604Z,10.07
2017-07-12T21:57:00.261Z,5.53
2017-07-12T21:59:52.245Z,6.83
2017-07-12T22:02:44.589Z,6.60
2017-07-12T22:05:36.751Z,7.00
2017-07-12T22:08:29.336Z,7.97
2017-07-12T22:11:21.439Z,6.87
2017-07-12T22:14:13.914Z,5.73
2017-07-12T22:17:05.913Z,7.90
2017-07-12T22:19:58.166Z,7.33
2017-07-12T22:22:50.957Z,8.23
2017-07-12T22:25:43.405Z,13.90
2017-07-12T22:28:35.345Z,9.60
2017-07-12T22:31:27.766Z,6.00
2017-07-12T22:34:19.854Z,9.40
2017-07-12T22:37:04.837Z,8.03
2017-07-12T22:39:38.846Z,11.83
2017-07-12T22:42:13.000Z,10.53
2017-07-12T22:44:41.292Z,14.23
2017-07-12T22:47:10.381Z,11.50
2017-07-12T22:49:38.771Z,12.13
2017-07-12T22:52:07.675Z,9.23
2017-07-12T22:54:36.669Z,10.03
2017-07-12T22:57:05.738Z,13.23
2017-07-12T22:59:34.155Z,11.07
2017-07-12T23:02:02.466Z,11.53
2017-07-12T23:04:30.875Z,11.90
2017-07-12T23:07:00.310Z,15.70
2017-07-12T23:09:29.725Z,12.87
2017-07-12T23:11:58.413Z,9.47
2017-07-12T23:14:26.719Z,10.33
2017-07-12T23:16:55.796Z,9.43
2017-07-12T23:19:24.088Z,10.97
2017-07-12T23:21:52.358Z,18.03
2017-07-12T23:24:20.755Z,12.63
2017-07-12T23:26:49.333Z,9.37
2017-07-12T23:29:18.825Z,21.13
2017-07-12T23:31:48.029Z,13.03
2017-07-12T23:34:16.365Z,12.30
2017-07-12T23:36:45.399Z,11.23
2017-07-12T23:39:14.115Z,13.03
2017-07-12T23:41:42.707Z,10.37
2017-07-12T23:44:11.041Z,13.47
2017-07-12T23:46:39.357Z,11.67
2017-07-12T23:49:07.744Z,8.80
2017-07-12T23:51:36.347Z,10.13
2017-07-12T23:54:05.052Z,8.33
2017-07-12T23:56:33.707Z,10.57
2017-07-12T23:59:02.837Z,7.50
